首页
METAR-TAF:

METAR-TAF

机场 :

東倫敦機場

東倫敦, 南非共和國

纬度: 33-02S, 经度: 027-50E, 海拔: 125米

当前天气观测

该预报发布于59分钟前的16:00 UTC
风速4节,风向东北
温度 17°C
湿度 88%
气压 1016 hPa
能见度10公里或以上
1500米以下无云,无积雨云

METAR: FAEL 171600Z 04004KT CAVOK 17/15 Q1016

时间: 18:59 (16:59 UTC)

预报

该预报发布于7小时和59分钟前的09:00 UTC
预报有效从17日的 10点(UTC)到 17日的 19点(UTC)
风速13节,风向
能见度10公里或以上
1500米以下无云,无积雨云
成为
从 17日的 16点(UTC)到 17日的 18点(UTC)
风速9节,风向北转东北

TAF: FAEL 170900Z 1710/1719 09013KT CAVOK TX21/1710Z TN15/1719Z BECMG 1716/1718 03009KT

超过4000个机场的气象观测和天气预报(METAR&TAF报告)。

可查询的气象台以黄色和红色小点在地图上表示。

将鼠标移到小点上方,可查看气象台名称。

然后点击查看天气观测和预报。

如需切换地图:点击带黑十字的绿色按钮放大地图;点击带横线的绿色按钮缩小地图;或者点击绿色箭头查看邻近地区的地图。


METAR-TAF: